Latest Weather Observations for Cape Grim

IDT60801

Issued at 1:21 am EST Thursday 18 July 2019 (issued every 10 minutes, with the page automatically refreshed every 10 minutes)

About weather observations | Map of weather stations | Latest weather observations for TAS | Other Formats
Station Details ID: 091331 Name: CAPE GRIM Lat: -40.68 Lon: 144.69 Height: 86.0 m
Data from the previous 72 hours. | See also: Recent months at Cape Grim
Date/Time
EST
Temp
°C
App
Temp
°C
Dew
Point
°C
Rel
Hum
%
Delta-T
°C
Wind Press
QNH
hPa
Press
MSL
hPa
Rain since
9am
mm
Dir  Spd
km/h
Gust
km/h
Spd
kts
Gust
kts
18/01:16am 9.8 -0.2 7.9 88 0.9 SW 50 69 27 37 1010.8 1010.9 5.8
18/01:08am 9.4 -3.0 8.2 92 0.6 SW 63 87 34 47 1010.7 1010.8 5.8
18/01:00am 8.7 -5.0 7.3 91 0.7 SW 69 95 37 51 1010.8 1010.9 5.6
18/12:36am 10.5 -2.5 7.4 81 1.5 SW 65 85 35 46 1010.6 1010.7 5.6
18/12:31am 10.3 -1.2 7.2 81 1.5 SW 57 85 31 46 1010.3 1010.4 5.6
18/12:30am 10.4 -0.9 7.3 81 1.5 SW 56 85 30 46 1010.3 1010.4 5.6
18/12:00am 10.2 -0.2 7.8 85 1.2 SW 52 80 28 43 1010.1 1010.2 5.6
 
Date/Time
EST
Temp
°C
App
Temp
°C
Dew
Point
°C
Rel
Hum
%
Delta-T
°C
Wind Press
QNH
hPa
Press
MSL
hPa
Rain since
9am
mm
Dir  Spd
km/h
Gust
km/h
Spd
kts
Gust
kts
17/11:51pm 9.8 -1.6 6.9 82 1.4 SW 56 83 30 45 1010.1 1010.2 5.4
17/11:32pm 10.5 -1.6 7.6 82 1.4 SW 61 91 33 49 1009.9 1010.0 5.4
17/11:30pm 10.3 -1.2 7.2 81 1.5 SW 57 91 31 49 1009.9 1010.0 5.4
17/11:00pm 10.5 0.4 7.4 81 1.5 SW 50 74 27 40 1009.6 1009.7 5.4
17/10:30pm 10.7 -1.2 6.8 77 1.9 SW 59 80 32 43 1009.5 1009.6 5.4
17/10:23pm 10.7 -0.7 6.6 76 1.9 SW 56 80 30 43 1009.4 1009.5 5.4
17/10:21pm 10.6 0.0 6.9 78 1.8 SW 52 78 28 42 1009.5 1009.6 5.4
17/10:14pm 10.7 0.1 7.0 78 1.8 SW 52 78 28 42 1009.3 1009.4 5.4
17/10:00pm 10.8 -0.9 6.0 72 2.2 SW 57 89 31 48 1009.1 1009.2 5.4
17/09:30pm 10.6 -1.2 7.5 81 1.5 SW 59 83 32 45 1008.9 1009.0 5.4
17/09:11pm 9.8 -2.8 7.2 84 1.2 SW 63 91 34 49 1009.0 1009.1 5.4
17/09:09pm 10.6 -1.5 7.8 83 1.4 SW 61 83 33 45 1009.0 1009.1 5.4
17/09:00pm 11.3 0.4 7.4 77 1.9 SW 54 89 29 48 1008.8 1008.9 5.4
17/08:30pm 11.0 -1.0 6.7 75 2.0 SW 59 85 32 46 1008.5 1008.6 5.4
17/08:00pm 10.4 0.6 8.7 89 0.8 SW 50 74 27 40 1008.5 1008.6 5.4
17/07:44pm 11.0 1.8 7.9 81 1.5 WSW 46 82 25 44 1008.0 1008.1 5.4
17/07:30pm 11.1 2.5 8.1 82 1.5 WSW 43 74 23 40 1008.0 1008.1 5.4
17/07:00pm 10.8 1.8 8.9 88 0.9 SW 46 78 25 42 1007.3 1007.3 5.4
17/06:50pm 10.0 0.1 9.7 98 0.2 SW 52 83 28 45 1007.4 1007.4 5.4
17/06:46pm 9.9 0.6 9.1 95 0.4 SW 48 83 26 45 1007.3 1007.3 5.4
17/06:30pm 10.5 1.4 8.6 88 0.9 WSW 46 85 25 46 1006.7 1006.7 5.4
17/06:00pm 10.3 0.6 9.1 92 0.6 WSW 50 83 27 45 1006.5 1006.5 5.0
17/05:30pm 10.8 2.2 8.0 83 1.4 WSW 43 76 23 41 1006.3 1006.3 5.0
17/05:00pm 11.2 2.0 8.1 81 1.5 WSW 46 74 25 40 1006.0 1006.0 5.0
17/04:30pm 10.8 1.2 9.4 91 0.7 SW 50 82 27 44 1005.9 1005.9 5.0
17/04:00pm 11.4 1.1 8.1 80 1.6 WSW 52 87 28 47 1005.4 1005.5 4.8
17/03:54pm 11.4 1.0 7.9 79 1.7 WSW 52 87 28 47 1005.3 1005.4 4.8
17/03:30pm 11.7 4.2 9.3 85 1.2 WSW 39 69 21 37 1005.2 1005.3 4.8
17/03:00pm 11.1 1.8 9.2 88 1.0 WSW 48 89 26 48 1005.0 1005.1 4.8
17/02:30pm 11.7 2.7 8.7 82 1.5 WSW 46 80 25 43 1004.6 1004.7 4.6
17/02:00pm 12.0 3.9 10.1 88 1.0 WSW 43 78 23 42 1004.6 1004.7 4.6
17/01:30pm 12.0 3.6 11.1 94 0.5 W 46 80 25 43 1004.5 1004.6 4.6
17/01:00pm 10.7 1.8 10.7 100 0.0 W 48 67 26 36 1005.1 1005.2 4.6
17/12:30pm 9.3 -0.7 9.3 100 0.0 W 52 74 28 40 1006.0 1006.0 4.0
17/12:00pm 11.8 1.0 11.3 97 0.3 WNW 59 78 32 42 1006.1 1006.1 0.0
17/11:35am 11.7 2.7 11.5 99 0.1 WNW 50 69 27 37 1006.9 1006.9 0.0
17/11:30am 11.8 3.6 11.8 100 0.0 W 46 59 25 32 1007.0 1007.0 0.0
17/11:00am 11.9 0.8 11.7 99 0.1 WNW 61 76 33 41 1007.9 1008.0 0.0
17/10:47am 11.8 1.7 11.6 99 0.1 WNW 56 74 30 40 1008.0 1008.1 0.0
17/10:30am 11.5 1.7 11.3 99 0.1 WNW 54 70 29 38 1008.6 1008.7 0.0
17/10:00am 11.9 2.5 11.4 97 0.3 WNW 52 63 28 34 1009.1 1009.2 0.0
17/09:32am 11.7 2.5 10.9 95 0.4 WNW 50 69 27 37 1009.6 1009.7 0.0
17/09:30am 11.8 3.0 11.0 95 0.4 WNW 48 61 26 33 1009.6 1009.7 0.0
17/09:01am 11.5 2.7 10.9 96 0.3 W 48 67 26 36 1009.9 1010.0 0.0
17/09:00am 11.5 2.3 10.9 96 0.3 W 50 67 27 36 1009.9 1010.0 2.8
17/08:30am 11.7 2.7 10.4 92 0.7 W 48 63 26 34 1009.8 1009.9 2.8
17/08:00am 11.6 3.2 11.0 96 0.3 W 46 57 25 31 1010.0 1010.1 2.8
17/07:30am 11.5 2.7 10.9 96 0.3 W 48 69 26 37 1010.5 1010.6 2.8
17/07:02am 11.6 2.0 10.7 94 0.5 W 52 70 28 38 1010.7 1010.8 2.8
17/07:00am 11.3 1.1 10.2 93 0.6 W 54 70 29 38 1010.6 1010.7 2.8
17/06:39am 11.6 2.6 10.3 92 0.7 W 48 67 26 36 1010.7 1010.8 2.8
17/06:30am 11.5 2.1 10.2 92 0.7 W 50 67 27 36 1010.6 1010.7 2.8
17/06:00am 11.3 2.3 10.4 94 0.5 W 48 69 26 37 1010.7 1010.8 2.8
17/05:30am 11.3 2.5 9.7 90 0.8 W 46 67 25 36 1011.3 1011.4 2.8
17/05:15am 11.3 2.5 9.4 88 1.0 W 46 65 25 35 1011.6 1011.7 2.8
17/05:00am 11.2 2.5 9.8 91 0.7 W 46 61 25 33 1011.7 1011.8 2.8
17/04:30am 11.2 2.5 9.8 91 0.7 W 46 67 25 36 1012.1 1012.2 2.8
17/04:08am 11.2 3.0 9.8 91 0.7 W 43 61 23 33 1012.3 1012.4 2.8
17/04:00am 11.1 3.0 9.9 92 0.6 W 43 57 23 31 1012.5 1012.6 2.8
17/03:30am 10.8 3.2 10.6 99 0.1 W 41 63 22 34 1013.2 1013.3 2.8
17/03:08am 11.0 3.7 10.2 95 0.4 W 39 57 21 31 1013.5 1013.6 2.8
17/03:00am 10.7 3.2 10.7 100 0.0 W 41 54 22 29 1013.5 1013.6 2.8
17/02:35am 10.7 2.8 10.7 100 0.0 W 43 61 23 33 1013.7 1013.8 2.8
17/02:30am 10.6 2.4 10.4 99 0.1 W 44 61 24 33 1013.7 1013.8 2.8
17/02:05am 10.5 4.4 10.5 100 0.0 W 33 54 18 29 1014.0 1014.1 2.8
17/02:00am 10.3 3.4 10.3 100 0.0 W 37 52 20 28 1014.1 1014.2 2.8
17/01:48am 10.5 4.0 10.5 100 0.0 W 35 54 19 29 1014.1 1014.2 2.8
17/01:44am 10.5 4.0 10.5 100 0.0 W 35 50 19 27 1014.2 1014.3 2.8
17/01:33am 9.8 3.1 9.8 100 0.0 W 35 57 19 31 1014.4 1014.5 2.8
17/01:30am 10.3 4.2 10.3 100 0.0 W 33 50 18 27 1014.4 1014.5 2.8
17/01:19am 10.1 4.1 10.1 100 0.0 W 32 50 17 27 1014.5 1014.6 2.8
17/01:07am 10.5 4.6 10.5 100 0.0 W 32 46 17 25 1014.8 1014.9 2.0
17/01:00am 10.1 3.9 10.1 100 0.0 W 33 48 18 26 1014.9 1015.0 1.8
17/12:30am 9.4 3.0 9.4 100 0.0 W 33 52 18 28 1015.3 1015.4 1.6
17/12:00am 9.8 3.7 9.7 99 0.1 WSW 32 50 17 27 1015.6 1015.7 1.4
 
Date/Time
EST
Temp
°C
App
Temp
°C
Dew
Point
°C
Rel
Hum
%
Delta-T
°C
Wind Press
QNH
hPa
Press
MSL
hPa
Rain since
9am
mm
Dir  Spd
km/h
Gust
km/h
Spd
kts
Gust
kts
16/11:30pm 11.0 5.4 10.1 94 0.5 WSW 30 54 16 29 1015.7 1015.8 1.4
16/11:00pm 11.1 5.1 10.2 94 0.5 WSW 32 57 17 31 1016.0 1016.1 1.4
16/10:34pm 11.2 5.3 9.1 87 1.1 WSW 30 48 16 26 1016.1 1016.2 1.2
16/10:30pm 11.6 5.3 8.8 83 1.4 W 32 46 17 25 1016.0 1016.1 1.2
16/10:00pm 11.3 5.7 10.0 92 0.7 WSW 30 50 16 27 1016.2 1016.3 1.2
16/09:32pm 11.6 5.4 10.0 90 0.8 WSW 33 54 18 29 1016.2 1016.3 1.2
16/09:30pm 11.4 5.2 10.0 91 0.7 WSW 33 50 18 27 1016.2 1016.3 1.2
16/09:00pm 10.6 3.6 10.1 97 0.3 W 37 57 20 31 1016.4 1016.5 1.2
16/08:31pm 11.6 3.8 9.9 89 0.9 W 41 65 22 35 1016.4 1016.5 1.2
16/08:30pm 12.0 4.7 10.2 89 0.9 W 39 56 21 30 1016.4 1016.5 1.2
16/08:00pm 11.7 4.1 10.6 93 0.6 W 41 65 22 35 1016.3 1016.4 1.2
16/07:31pm 11.7 6.0 11.7 100 0.0 WSW 33 63 18 34 1016.2 1016.3 1.2
16/07:30pm 11.7 6.2 11.7 100 0.0 WSW 32 63 17 34 1016.2 1016.3 1.2
16/07:29pm 11.8 6.1 11.8 100 0.0 WSW 33 63 18 34 1016.2 1016.3 1.2
16/07:00pm 11.1 4.4 11.1 100 0.0 WSW 37 65 20 35 1016.6 1016.7 1.0
16/06:30pm 11.4 4.4 11.4 100 0.0 SW 39 57 21 31 1016.2 1016.3 1.0
16/06:29pm 11.4 4.1 11.4 100 0.0 SW 41 57 22 31 1016.2 1016.3 1.0
16/06:25pm 11.2 3.4 11.2 100 0.0 SW 43 57 23 31 1016.3 1016.4 1.0
16/06:15pm 10.7 0.3 10.7 100 0.0 SW 56 76 30 41 1016.2 1016.3 1.0
16/06:11pm 10.3 1.3 10.3 100 0.0 SW 48 76 26 41 1016.1 1016.2 0.8
16/06:01pm 11.0 3.0 11.0 100 0.0 SW 44 69 24 37 1016.2 1016.3 0.8
16/06:00pm 11.0 2.6 11.0 100 0.0 SW 46 69 25 37 1016.2 1016.3 0.8
16/05:52pm 10.8 -0.1 10.8 100 0.0 SW 59 80 32 43 1016.3 1016.4 0.6
16/05:48pm 10.6 1.3 10.6 100 0.0 SW 50 80 27 43 1016.2 1016.3 0.6
16/05:37pm 11.8 3.6 11.8 100 0.0 SW 46 70 25 38 1016.2 1016.3 0.2
16/05:36pm 12.0 3.9 12.0 100 0.0 SW 46 72 25 39 1016.3 1016.4 0.2
16/05:30pm 11.7 3.1 11.7 100 0.0 SW 48 72 26 39 1016.2 1016.3 0.2
16/05:22pm 11.5 3.8 11.5 100 0.0 SW 43 61 23 33 1016.2 1016.3 0.2
16/05:19pm 11.3 3.4 11.3 100 0.0 SW 44 69 24 37 1016.2 1016.3 0.2
16/05:00pm 11.4 3.7 11.4 100 0.0 SW 43 70 23 38 1016.0 1016.1 0.2
16/04:30pm 11.5 3.6 11.5 100 0.0 SW 44 72 24 39 1015.7 1015.8 0.0
16/04:20pm 11.5 3.6 11.5 100 0.0 SW 44 74 24 40 1015.7 1015.8 0.0
16/04:00pm 11.5 2.5 11.5 100 0.0 SW 50 69 27 37 1015.8 1015.9 0.0
16/03:58pm 11.6 3.0 11.6 100 0.0 SW 48 69 26 37 1015.8 1015.9 0.0
16/03:43pm 11.3 1.8 11.3 100 0.0 SW 52 70 28 38 1015.6 1015.7 0.0
16/03:38pm 11.5 1.3 11.5 100 0.0 SW 56 69 30 37 1015.7 1015.8 0.0
16/03:30pm 11.3 0.5 11.3 100 0.0 SW 59 80 32 43 1015.7 1015.8 0.0
16/03:20pm 11.6 2.2 11.6 100 0.0 SW 52 76 28 41 1015.5 1015.6 0.0
16/03:10pm 11.6 1.5 11.6 100 0.0 SW 56 76 30 41 1015.4 1015.5 0.0
16/03:00pm 11.5 0.0 11.5 100 0.0 SW 63 78 34 42 1015.3 1015.4 0.0
16/02:30pm 11.9 1.4 11.1 95 0.4 SW 57 78 31 42 1015.4 1015.5 0.0
16/02:03pm 12.0 1.3 11.5 97 0.3 SW 59 78 32 42 1015.4 1015.5 0.0
16/02:00pm 11.9 0.7 11.3 96 0.3 SW 61 78 33 42 1015.4 1015.5 0.0
16/01:42pm 12.0 1.6 11.5 97 0.3 SW 57 76 31 41 1015.5 1015.6 0.0
16/01:38pm 11.7 0.9 11.4 98 0.2 SW 59 76 32 41 1015.5 1015.6 0.0
16/01:30pm 11.8 0.3 11.6 99 0.1 SW 63 83 34 45 1015.5 1015.6 0.0
16/01:11pm 11.8 1.1 11.6 99 0.1 SW 59 78 32 42 1015.4 1015.5 0.0
16/01:07pm 11.8 0.8 11.8 100 0.0 SW 61 76 33 41 1015.4 1015.5 0.0
16/01:00pm 11.8 1.1 11.6 99 0.1 SW 59 74 32 40 1015.5 1015.6 0.0
16/12:30pm 11.9 0.8 11.6 98 0.2 SW 61 85 33 46 1015.4 1015.5 0.0
16/12:02pm 11.4 -0.1 11.4 100 0.0 SW 63 82 34 44 1015.4 1015.5 0.0
16/12:00pm 11.5 -0.4 11.5 100 0.0 SW 65 82 35 44 1015.5 1015.6 0.0
16/11:30am 11.3 0.1 11.3 100 0.0 SW 61 80 33 43 1015.8 1015.9 0.0
16/11:21am 11.6 0.5 11.6 100 0.0 SW 61 82 33 44 1015.9 1016.0 0.0
16/11:00am 11.8 2.5 11.8 100 0.0 SW 52 80 28 43 1015.7 1015.8 0.0
16/10:57am 11.8 1.5 11.8 100 0.0 SW 57 82 31 44 1015.7 1015.8 0.0
16/10:56am 12.0 1.4 12.0 100 0.0 SW 59 82 32 44 1015.7 1015.8 0.0
16/10:44am 11.6 -0.2 11.6 100 0.0 SW 65 85 35 46 1015.8 1015.9 0.0
16/10:43am 11.6 -0.2 11.6 100 0.0 SW 65 85 35 46 1015.8 1015.9 0.0
16/10:30am 11.4 0.3 11.4 100 0.0 SW 61 87 33 47 1015.8 1015.9 0.0
16/10:02am 11.6 0.5 11.6 100 0.0 SW 61 87 33 47 1015.9 1016.0 0.0
16/10:01am 11.5 0.4 11.5 100 0.0 SW 61 87 33 47 1015.9 1016.0 0.0
16/10:00am 11.6 0.5 11.6 100 0.0 SW 61 87 33 47 1015.8 1015.9 0.0
16/09:40am 11.3 1.1 11.3 100 0.0 SW 56 91 30 49 1015.8 1015.9 0.0
16/09:30am 11.4 3.7 11.4 100 0.0 WSW 43 76 23 41 1015.8 1015.9 0.0
16/09:28am 11.3 4.3 11.3 100 0.0 WSW 39 72 21 39 1015.8 1015.9 0.0
16/09:25am 11.5 4.2 11.5 100 0.0 WSW 41 74 22 40 1015.7 1015.8 0.0
16/09:24am 11.6 3.9 11.6 100 0.0 WSW 43 74 23 40 1015.9 1016.0 0.0
16/09:02am 11.5 1.3 11.5 100 0.0 SW 56 83 30 45 1015.8 1015.9 0.0
16/09:00am 11.5 1.3 11.5 100 0.0 SW 56 83 30 45 1015.8 1015.9 2.0
16/08:51am 11.4 1.2 11.4 100 0.0 SW 56 76 30 41 1015.7 1015.8 2.0
16/08:47am 11.1 1.6 11.1 100 0.0 SW 52 76 28 41 1015.7 1015.8 2.0
16/08:36am 11.0 1.5 11.0 100 0.0 WSW 52 83 28 45 1015.5 1015.6 2.0
16/08:30am 11.2 0.8 11.2 100 0.0 SW 57 83 31 45 1015.5 1015.6 2.0
16/08:00am 11.1 0.3 11.1 100 0.0 SW 59 80 32 43 1015.7 1015.8 2.0
16/07:30am 11.2 0.4 11.2 100 0.0 SW 59 87 32 47 1015.5 1015.6 1.8
16/07:00am 11.1 -0.1 11.1 100 0.0 SW 61 83 33 45 1015.4 1015.5 1.6
16/06:30am 11.1 2.0 11.1 100 0.0 SW 50 83 27 45 1015.3 1015.4 1.6
16/06:00am 11.0 3.2 11.0 100 0.0 WSW 43 69 23 37 1015.4 1015.5 1.6
16/05:30am 11.2 3.4 11.2 100 0.0 WSW 43 70 23 38 1015.3 1015.4 1.6
16/05:19am 11.1 3.7 11.1 100 0.0 WSW 41 74 22 40 1015.2 1015.3 1.6
16/05:01am 10.8 4.0 10.8 100 0.0 WSW 37 61 20 33 1015.2 1015.3 1.6
16/05:00am 10.8 4.0 10.8 100 0.0 WSW 37 65 20 35 1015.2 1015.3 1.6
16/04:30am 10.5 4.0 10.3 99 0.1 WSW 35 61 19 33 1015.7 1015.8 1.6
16/04:00am 10.7 2.5 9.8 94 0.5 SW 43 70 23 38 1015.8 1015.9 1.6
16/03:30am 10.7 3.2 9.3 91 0.7 SW 39 65 21 35 1015.8 1015.9 1.6
16/03:24am 10.9 2.5 9.0 88 0.9 SW 43 70 23 38 1015.8 1015.9 1.6
16/03:00am 10.6 -0.3 8.9 89 0.8 SW 56 78 30 42 1015.9 1016.0 1.6
16/02:36am 9.8 -1.1 9.7 99 0.1 SW 57 91 31 49 1015.9 1016.0 1.6
16/02:30am 9.4 -3.8 9.4 100 0.0 SW 69 91 37 49 1016.0 1016.1 1.6
16/02:26am 9.4 -1.9 9.4 100 0.0 SW 59 91 32 49 1015.9 1016.0 1.6
16/02:22am 9.5 0.7 9.4 99 0.0 WSW 46 89 25 48 1015.8 1015.9 1.6
16/02:00am 10.6 1.8 9.4 92 0.6 SW 46 74 25 40 1015.9 1016.0 1.6
16/01:30am 10.7 1.0 9.1 90 0.8 SW 50 70 27 38 1016.2 1016.3 1.4
16/01:00am 10.8 1.3 9.9 94 0.5 SW 50 69 27 37 1016.3 1016.4 1.4
16/12:30am 10.1 0.3 10.0 99 0.1 SW 52 80 28 43 1016.7 1016.8 1.4
16/12:00am 10.6 2.4 10.4 99 0.1 SW 44 74 24 40 1016.7 1016.8 1.4
 
Date/Time
EST
Temp
°C
App
Temp
°C
Dew
Point
°C
Rel
Hum
%
Delta-T
°C
Wind Press
QNH
hPa
Press
MSL
hPa
Rain since
9am
mm
Dir  Spd
km/h
Gust
km/h
Spd
kts
Gust
kts
15/11:30pm 10.2 2.9 10.2 100 0.0 WSW 39 67 21 36 1016.9 1017.0 1.2
15/11:00pm 10.4 1.1 10.4 100 0.0 SW 50 70 27 38 1016.9 1017.0 1.2
15/10:49pm 10.3 1.7 10.3 100 0.0 SW 46 67 25 36 1017.0 1017.1 1.2
15/10:39pm 10.3 2.3 10.3 100 0.0 SW 43 65 23 35 1017.1 1017.2 1.2
15/10:30pm 10.6 3.0 10.6 100 0.0 SW 41 63 22 34 1017.1 1017.2 1.2
15/10:00pm 10.4 2.2 10.4 100 0.0 SW 44 65 24 35 1016.9 1017.0 1.0
15/09:30pm 11.1 0.5 10.8 98 0.2 SW 57 78 31 42 1016.9 1017.0 1.0
15/09:00pm 11.0 1.1 11.0 100 0.0 SW 54 72 29 39 1017.0 1017.1 1.0
15/08:30pm 10.7 2.6 10.7 100 0.0 WSW 44 72 24 39 1016.9 1017.0 0.8
15/08:17pm 10.8 1.2 10.8 100 0.0 SW 52 76 28 41 1016.8 1016.9 0.8
15/08:11pm 10.4 1.1 10.4 100 0.0 SW 50 76 27 41 1016.9 1017.0 0.8
15/08:10pm 10.6 1.7 10.6 100 0.0 SW 48 76 26 41 1016.8 1016.9 0.8
15/08:00pm 10.7 3.5 10.7 100 0.0 WSW 39 78 21 42 1016.8 1016.9 0.8
15/07:54pm 10.2 2.1 10.2 100 0.0 WSW 43 78 23 42 1016.9 1017.0 0.8
15/07:30pm 10.7 1.1 10.7 100 0.0 SW 52 76 28 41 1016.5 1016.6 0.6
15/07:00pm 10.7 0.1 10.7 100 0.0 SW 57 78 31 42 1016.5 1016.6 0.6
15/06:30pm 10.4 -0.1 10.4 100 0.0 SW 56 74 30 40 1016.2 1016.3 0.6
15/06:21pm 10.7 0.7 10.7 100 0.0 SW 54 72 29 39 1016.1 1016.2 0.6
15/06:13pm 10.4 0.3 10.4 100 0.0 SW 54 78 29 42 1015.9 1016.0 0.6
15/06:00pm 11.2 1.7 11.2 100 0.0 SW 52 70 28 38 1015.8 1015.9 0.6
15/05:30pm 10.5 -2.4 10.5 100 0.0 SW 69 91 37 49 1015.7 1015.8 0.6
15/05:08pm 11.1 0.2 10.9 99 0.1 SW 59 80 32 43 1015.5 1015.6 0.6
15/05:00pm 11.0 0.1 11.0 100 0.0 SW 59 76 32 41 1015.6 1015.7 0.6
15/04:32pm 11.2 0.2 10.7 97 0.3 SW 59 78 32 42 1015.3 1015.4 0.6
15/04:30pm 11.5 0.3 11.2 98 0.2 SW 61 76 33 41 1015.4 1015.5 0.6
15/04:00pm 10.8 -0.5 10.8 100 0.0 SW 61 80 33 43 1015.4 1015.5 0.6
15/03:30pm 11.6 1.8 11.4 99 0.1 SW 54 78 29 42 1015.1 1015.2 0.6
15/03:00pm 11.0 -0.6 11.0 100 0.0 SW 63 83 34 45 1015.1 1015.2 0.6
15/02:55pm 11.3 0.5 11.3 100 0.0 SW 59 82 32 44 1015.0 1015.1 0.6
15/02:30pm 11.4 3.1 11.4 100 0.0 WSW 46 78 25 42 1014.9 1015.0 0.6
15/02:24pm 11.3 3.0 11.3 100 0.0 WSW 46 78 25 42 1014.9 1015.0 0.6
15/02:01pm 11.7 4.8 11.7 100 0.0 WSW 39 70 21 38 1015.0 1015.1 0.6
15/02:00pm 11.6 4.3 11.6 100 0.0 WSW 41 72 22 39 1015.0 1015.1 0.6
15/01:56pm 11.7 3.9 11.7 100 0.0 SW 44 74 24 40 1015.0 1015.1 0.6
15/01:52pm 11.6 3.4 11.6 100 0.0 WSW 46 74 25 40 1015.0 1015.1 0.6
15/01:51pm 11.7 4.1 11.7 100 0.0 WSW 43 74 23 40 1015.1 1015.2 0.6
15/01:46pm 11.8 5.3 11.8 100 0.0 WSW 37 65 20 35 1015.1 1015.2 0.6
15/01:39pm 11.9 5.5 11.9 100 0.0 WSW 37 65 20 35 1015.1 1015.2 0.6
15/01:30pm 11.7 4.4 11.7 100 0.0 WSW 41 65 22 35 1015.2 1015.3 0.6
15/01:00pm 11.7 4.8 11.7 100 0.0 W 39 65 21 35 1015.6 1015.7 0.6
15/12:30pm 11.5 4.9 11.5 100 0.0 WSW 37 59 20 32 1015.8 1015.9 0.6
15/12:16pm 11.5 5.3 11.5 100 0.0 WSW 35 67 19 36 1016.0 1016.1 0.6
15/12:01pm 11.3 6.4 11.3 100 0.0 WSW 28 48 15 26 1016.3 1016.4 0.6
15/12:00pm 11.4 6.9 11.4 100 0.0 WSW 26 48 14 26 1016.3 1016.4 0.6
15/11:49am 11.3 5.4 11.3 100 0.0 WSW 33 61 18 33 1016.6 1016.7 0.6
15/11:40am 11.1 4.8 11.1 100 0.0 WSW 35 59 19 32 1016.8 1016.9 0.6
15/11:30am 10.6 3.8 10.6 100 0.0 WSW 37 56 20 30 1016.9 1017.0 0.6
15/11:11am 10.5 5.0 10.5 100 0.0 WSW 30 50 16 27 1017.4 1017.6 0.4
15/11:00am 10.7 4.3 10.7 100 0.0 SW 35 54 19 29 1017.5 1017.7 0.4
15/10:31am 10.6 2.4 10.3 98 0.2 SW 44 63 24 34 1017.6 1017.8 0.0
15/10:30am 10.6 2.6 10.3 98 0.2 SW 43 59 23 32 1017.6 1017.8 0.0
15/10:12am 10.1 1.8 9.5 96 0.3 SW 43 61 23 33 1017.6 1017.8 0.0
15/10:00am 10.7 2.0 8.6 87 1.0 SW 44 57 24 31 1017.4 1017.6 0.0
15/09:30am 10.6 2.7 8.0 84 1.3 SW 39 61 21 33 1017.5 1017.7 0.0
15/09:14am 10.6 3.1 7.8 83 1.4 SW 37 56 20 30 1017.3 1017.5 0.0
15/09:00am 10.4 1.0 7.1 80 1.6 SW 46 59 25 32 1017.1 1017.2 8.6
15/08:48am 10.6 0.8 6.9 78 1.8 SW 48 69 26 37 1017.0 1017.1 8.6
15/08:30am 10.3 1.0 7.7 84 1.3 SW 46 61 25 33 1016.9 1017.0 8.6
15/08:09am 10.3 0.5 7.0 80 1.6 SW 48 67 26 36 1016.7 1016.8 8.6
15/08:00am 10.2 -0.8 6.9 80 1.6 SW 54 69 29 37 1016.6 1016.7 8.6
15/07:33am 10.0 -0.3 6.5 79 1.6 SW 50 69 27 37 1016.7 1016.8 8.6
15/07:30am 9.9 0.0 6.4 79 1.6 SW 48 65 26 35 1016.7 1016.8 8.6
15/07:00am 10.1 -0.5 6.8 80 1.6 SW 52 72 28 39 1016.3 1016.4 8.6
15/06:36am 10.0 -0.9 7.3 83 1.3 SW 54 74 29 40 1015.7 1015.8 8.6
15/06:30am 10.1 -0.6 7.9 86 1.1 SW 54 69 29 37 1015.8 1015.9 8.6
15/06:00am 10.3 -0.9 7.5 83 1.3 SW 56 74 30 40 1015.0 1015.1 8.6
15/05:30am 9.8 -1.6 7.6 86 1.1 SW 57 80 31 43 1014.9 1015.0 8.6
15/05:05am 9.6 -0.9 8.7 94 0.4 SW 54 72 29 39 1014.5 1014.6 8.6
15/05:00am 9.9 -1.8 8.0 88 0.9 SW 59 72 32 39 1014.4 1014.5 8.6
15/04:40am 9.8 -2.0 7.6 86 1.1 SW 59 78 32 42 1013.9 1014.0 8.6
15/04:30am 9.6 -3.3 7.5 87 1.0 SW 65 80 35 43 1013.9 1014.0 8.6
15/04:04am 9.9 -3.5 7.2 83 1.3 SW 67 85 36 46 1013.5 1013.6 8.6
15/04:00am 9.8 -4.0 7.2 84 1.2 SW 69 85 37 46 1013.5 1013.6 8.6
15/03:31am 9.3 -4.1 8.5 95 0.4 SW 69 87 37 47 1013.0 1013.1 8.6
15/03:30am 9.4 -3.9 8.9 97 0.2 SW 69 85 37 46 1013.0 1013.1 8.6
15/03:00am 10.3 -2.7 7.4 82 1.4 SW 65 83 35 45 1012.8 1012.9 8.6
15/02:30am 9.8 -4.4 7.9 88 0.9 SW 72 93 39 50 1012.4 1012.5 8.6
15/02:05am 9.9 -4.4 7.3 84 1.2 SW 72 95 39 51 1012.3 1012.4 8.6
15/02:00am 9.9 -2.5 8.0 88 0.9 SW 63 87 34 47 1012.2 1012.3 8.6
15/01:58am 9.8 -2.3 7.9 88 0.9 SW 61 83 33 45 1012.2 1012.3 8.6
15/01:54am 9.5 -3.3 8.1 91 0.7 SW 65 96 35 52 1012.2 1012.3 8.6
15/01:52am 9.4 -4.2 7.7 89 0.8 SW 69 96 37 52 1012.1 1012.2 8.6
15/01:30am 9.5 -5.8 8.1 91 0.7 SW 78 102 42 55 1011.4 1011.5 8.6

Other formats

Comma delimited format used in spreadsheet applications
http://www.bom.gov.au/fwo/IDT60801/IDT60801.95954.axf

JavaScript Object Notation format (JSON) in row-major order
http://www.bom.gov.au/fwo/IDT60801/IDT60801.95954.json

Data quality

Most of these data are generated automatically and are frequently updated. Quality checks on data are not normally performed. It is possible for incorrect values to appear. Refer to information at About Latest Weather Observations and please check the disclaimer before using these data.